Current Conditions

Updated: 23-Apr-2017 04:44 AM  
Summary / Temperature Wind Rain






Feels like: 54°F

1-hour difference
1.6°F 1.6°F colder than last hour.

24-hour difference
2.0°F2.0°F warmer than yesterday at this time.

  Today Yesterday
High: 63.6°F
12:00 AM
87.0°F
4:28 PM
Low: 54.1°F
4:33 AM
51.6°F
5:45 AM
Calm SW
0.0
Gust:  0.0 mph
0 Beaufort - Calm

Today: 2.3 - 12:00 AM
Month: 17.0 mph - Apr 8
Rain Today: 0.00 in
Current Rate (/hr): 0.000 in
Max Rate (/hr):
Rain Yesterday: 0.00 in
Storm Rain: 0.00 in
This Month: 0.66 in
Season Total: 11.61 in
Last Rain Event: 4 days ago
Humidity / Barometer Sun / Moon
Humidity: 91 Increased 2.0% in the last hour.
Dew Point: 51.5°F Decreased 1.0°F in the last hour.
Barometer: 29.884 inHg  
Baro Trend: Steady
Sunrise: 6:12 AM
Sunset: 7:36 PM
Moonrise: 4:37 AM
Moonset: 4:35 PM
Sky Conditions UV Index
Summary: Mostly clear
Visibility: 10 miles
Clouds: A few clouds @ 9,500 ft
KVIS - 3:56 AM PDT
Current: 0.0  None 
Sunday: 7.4  High 
Monday: 8.6  Very High 
Air Quality Fire Danger
 Good 
Ozone 10 ppb
PM 2.5 11 μg/m3
4:40 AM PDT
Current: 0  Low 

Local Alerts Local Forecast
Local NWS Alerts
Today

Mostly
Sunny
High 79
Tonight

Mostly
Clear
Low 48
Mon

Partly
Cloudy
High 77
Mon night

Partly
Cloudy
Low 52
Tue

Partly
Cloudy
High 75
Tue night

Partly
Cloudy
Low 54
Wed

Partly
Cloudy
High 79

Local Radar Local Satellite Neighborhood Cam Sky Cam
Local Radar Local Satellite Neighborhood Cam Sky Cam


Nearby Personal Stations

Weather Underground PWS KCAPORTE11     Weather Underground PWS KCAPORTE8

Nearby Airport Stations

KPTV - Porterville, California, USA
Distance from station: SSW 4mi, 7km
Updated: Sun, 23-Apr-2017 3:56am PDT

 Wind from SSW
Wind: SSW 7 mph , 11 km/h
Temperature: 52°F , 11°C
Dew Point: 52°F , 11°C
Humidity: 100%
Barometer: 29.92 inHg , 1013.2 hPa
Visibility: 10 miles , 16 km
2017/04/23 10:56 KPTV 231056Z AUTO 21006KT 10SM 11/11 A2992 RMK AO2 SLP141 T01110106 $
KVIS - Visalia, California, USA
Distance from station: NW 27mi, 43km
Updated: Sun, 23-Apr-2017 3:56am PDT
Few Clouds
Few Clouds
 Wind from W
Wind: W 6 mph , 9 km/h
Temperature: 54°F , 12°C
Dew Point: 48°F , 9°C
Humidity: 82%
Barometer: 29.90 inHg , 1012.5 hPa
Clouds: Few Clouds
Visibility: 10 miles , 16 km
Cloud details: Few Clouds 9500 ft
2017/04/23 10:56 KVIS 231056Z AUTO 26005KT 10SM FEW095 12/09 A2990 RMK AO2 SLP132 T01170089

Metar display script from Saratoga-Weather.org



Visitor Map